sensor_id;sensor_type;location;lat;lon;timestamp;P1;durP1;ratioP1;P2;durP2;ratioP2
49860;SDS011;35761;48.826;9.238;2024-02-21T00:00:11;15.70;;;4.55;;
49860;SDS011;35761;48.826;9.238;2024-02-21T00:02:37;14.73;;;4.30;;
49860;SDS011;35761;48.826;9.238;2024-02-21T00:05:02;15.00;;;4.47;;
49860;SDS011;35761;48.826;9.238;2024-02-21T00:07:28;17.30;;;4.70;;
49860;SDS011;35761;48.826;9.238;2024-02-21T00:09:54;13.38;;;4.32;;
49860;SDS011;35761;48.826;9.238;2024-02-21T00:12:19;16.58;;;5.05;;
49860;SDS011;35761;48.826;9.238;2024-02-21T00:14:45;16.77;;;4.50;;
49860;SDS011;35761;48.826;9.238;2024-02-21T00:17:10;16.92;;;4.32;;
49860;SDS011;35761;48.826;9.238;2024-02-21T00:19:35;16.77;;;4.75;;
49860;SDS011;35761;48.826;9.238;2024-02-21T00:22:01;14.90;;;4.55;;
49860;SDS011;35761;48.826;9.238;2024-02-21T00:24:26;13.95;;;4.45;;
49860;SDS011;35761;48.826;9.238;2024-02-21T00:26:53;17.55;;;4.60;;
49860;SDS011;35761;48.826;9.238;2024-02-21T00:29:18;22.38;;;4.60;;
49860;SDS011;35761;48.826;9.238;2024-02-21T00:31:44;21.75;;;4.72;;
49860;SDS011;35761;48.826;9.238;2024-02-21T00:34:09;22.15;;;4.78;;
49860;SDS011;35761;48.826;9.238;2024-02-21T00:36:36;17.90;;;4.53;;
49860;SDS011;35761;48.826;9.238;2024-02-21T00:39:01;13.68;;;4.05;;
49860;SDS011;35761;48.826;9.238;2024-02-21T00:41:27;14.65;;;4.53;;
49860;SDS011;35761;48.826;9.238;2024-02-21T00:43:52;13.90;;;4.30;;
49860;SDS011;35761;48.826;9.238;2024-02-21T00:46:18;21.20;;;4.65;;
49860;SDS011;35761;48.826;9.238;2024-02-21T00:48:44;14.48;;;4.07;;
49860;SDS011;35761;48.826;9.238;2024-02-21T00:51:10;15.63;;;4.93;;
49860;SDS011;35761;48.826;9.238;2024-02-21T00:53:35;15.18;;;4.80;;
49860;SDS011;35761;48.826;9.238;2024-02-21T00:56:04;14.60;;;3.95;;
49860;SDS011;35761;48.826;9.238;2024-02-21T00:58:30;15.90;;;4.00;;
49860;SDS011;35761;48.826;9.238;2024-02-21T01:00:56;16.45;;;5.00;;
49860;SDS011;35761;48.826;9.238;2024-02-21T01:03:21;13.07;;;4.55;;
49860;SDS011;35761;48.826;9.238;2024-02-21T01:05:47;14.45;;;4.22;;
49860;SDS011;35761;48.826;9.238;2024-02-21T01:08:12;11.15;;;4.35;;
49860;SDS011;35761;48.826;9.238;2024-02-21T01:10:37;12.88;;;5.07;;
49860;SDS011;35761;48.826;9.238;2024-02-21T01:13:03;16.50;;;4.10;;
49860;SDS011;35761;48.826;9.238;2024-02-21T01:15:28;21.67;;;4.50;;
49860;SDS011;35761;48.826;9.238;2024-02-21T01:17:54;16.67;;;4.93;;
49860;SDS011;35761;48.826;9.238;2024-02-21T01:20:20;17.30;;;4.07;;
49860;SDS011;35761;48.826;9.238;2024-02-21T01:22:46;14.00;;;4.22;;
49860;SDS011;35761;48.826;9.238;2024-02-21T01:25:12;14.25;;;4.13;;
49860;SDS011;35761;48.826;9.238;2024-02-21T01:27:37;10.90;;;3.45;;
49860;SDS011;35761;48.826;9.238;2024-02-21T01:30:03;20.95;;;4.47;;
49860;SDS011;35761;48.826;9.238;2024-02-21T01:32:28;16.10;;;4.78;;
49860;SDS011;35761;48.826;9.238;2024-02-21T01:34:54;12.85;;;4.13;;
49860;SDS011;35761;48.826;9.238;2024-02-21T01:37:19;12.82;;;4.10;;
49860;SDS011;35761;48.826;9.238;2024-02-21T01:39:45;12.00;;;4.28;;
49860;SDS011;35761;48.826;9.238;2024-02-21T01:42:10;14.50;;;4.38;;
49860;SDS011;35761;48.826;9.238;2024-02-21T01:44:36;14.15;;;4.05;;
49860;SDS011;35761;48.826;9.238;2024-02-21T01:47:03;21.02;;;4.90;;
49860;SDS011;35761;48.826;9.238;2024-02-21T01:49:28;16.10;;;4.40;;
49860;SDS011;35761;48.826;9.238;2024-02-21T01:51:54;16.02;;;4.50;;
49860;SDS011;35761;48.826;9.238;2024-02-21T01:54:19;12.02;;;4.35;;
49860;SDS011;35761;48.826;9.238;2024-02-21T01:56:46;14.88;;;5.18;;
49860;SDS011;35761;48.826;9.238;2024-02-21T01:59:11;17.08;;;4.68;;
49860;SDS011;35761;48.826;9.238;2024-02-21T02:01:37;17.45;;;4.32;;
49860;SDS011;35761;48.826;9.238;2024-02-21T02:04:02;11.30;;;4.45;;
49860;SDS011;35761;48.826;9.238;2024-02-21T02:06:30;14.57;;;3.92;;
49860;SDS011;35761;48.826;9.238;2024-02-21T02:08:56;15.57;;;4.28;;
49860;SDS011;35761;48.826;9.238;2024-02-21T02:11:22;13.68;;;4.20;;
49860;SDS011;35761;48.826;9.238;2024-02-21T02:13:48;15.77;;;4.00;;
49860;SDS011;35761;48.826;9.238;2024-02-21T02:16:13;20.92;;;4.15;;
49860;SDS011;35761;48.826;9.238;2024-02-21T02:18:38;18.13;;;4.70;;
49860;SDS011;35761;48.826;9.238;2024-02-21T02:21:04;19.67;;;4.38;;
49860;SDS011;35761;48.826;9.238;2024-02-21T02:23:34;23.65;;;4.53;;
49860;SDS011;35761;48.826;9.238;2024-02-21T02:26:00;12.55;;;4.10;;
49860;SDS011;35761;48.826;9.238;2024-02-21T02:28:28;15.32;;;3.97;;
49860;SDS011;35761;48.826;9.238;2024-02-21T02:30:53;9.77;;;3.67;;
49860;SDS011;35761;48.826;9.238;2024-02-21T02:33:19;14.07;;;4.00;;
49860;SDS011;35761;48.826;9.238;2024-02-21T02:35:45;14.60;;;4.43;;
49860;SDS011;35761;48.826;9.238;2024-02-21T02:38:11;18.85;;;4.68;;
49860;SDS011;35761;48.826;9.238;2024-02-21T02:40:38;19.23;;;4.35;;
49860;SDS011;35761;48.826;9.238;2024-02-21T02:43:04;12.05;;;4.20;;
49860;SDS011;35761;48.826;9.238;2024-02-21T02:45:30;20.17;;;5.00;;
49860;SDS011;35761;48.826;9.238;2024-02-21T02:47:56;16.88;;;4.00;;
49860;SDS011;35761;48.826;9.238;2024-02-21T02:50:23;21.05;;;5.05;;
49860;SDS011;35761;48.826;9.238;2024-02-21T02:52:48;16.42;;;5.22;;
49860;SDS011;35761;48.826;9.238;2024-02-21T02:55:14;16.95;;;4.05;;
49860;SDS011;35761;48.826;9.238;2024-02-21T02:57:39;16.65;;;4.40;;
49860;SDS011;35761;48.826;9.238;2024-02-21T03:00:07;15.05;;;4.03;;
49860;SDS011;35761;48.826;9.238;2024-02-21T03:02:34;17.50;;;4.22;;
49860;SDS011;35761;48.826;9.238;2024-02-21T03:04:59;12.18;;;4.32;;
49860;SDS011;35761;48.826;9.238;2024-02-21T03:07:25;15.32;;;4.00;;
49860;SDS011;35761;48.826;9.238;2024-02-21T03:09:50;11.82;;;4.65;;
49860;SDS011;35761;48.826;9.238;2024-02-21T03:12:17;18.50;;;4.13;;
49860;SDS011;35761;48.826;9.238;2024-02-21T03:14:52;12.05;;;4.32;;
49860;SDS011;35761;48.826;9.238;2024-02-21T03:17:17;16.88;;;4.35;;
49860;SDS011;35761;48.826;9.238;2024-02-21T03:19:43;14.98;;;4.45;;
49860;SDS011;35761;48.826;9.238;2024-02-21T03:22:08;13.40;;;3.80;;
49860;SDS011;35761;48.826;9.238;2024-02-21T03:24:34;17.00;;;4.30;;
49860;SDS011;35761;48.826;9.238;2024-02-21T03:26:59;20.52;;;5.50;;
49860;SDS011;35761;48.826;9.238;2024-02-21T03:29:25;12.65;;;3.90;;
49860;SDS011;35761;48.826;9.238;2024-02-21T03:31:50;14.35;;;3.65;;
49860;SDS011;35761;48.826;9.238;2024-02-21T03:34:16;14.20;;;4.55;;
49860;SDS011;35761;48.826;9.238;2024-02-21T03:36:41;21.80;;;4.78;;
49860;SDS011;35761;48.826;9.238;2024-02-21T03:39:07;22.92;;;4.28;;
49860;SDS011;35761;48.826;9.238;2024-02-21T03:41:34;15.73;;;4.05;;
49860;SDS011;35761;48.826;9.238;2024-02-21T03:44:00;10.25;;;3.67;;
49860;SDS011;35761;48.826;9.238;2024-02-21T03:46:25;18.92;;;4.43;;
49860;SDS011;35761;48.826;9.238;2024-02-21T03:48:51;16.83;;;4.28;;
49860;SDS011;35761;48.826;9.238;2024-02-21T03:51:16;17.00;;;3.80;;
49860;SDS011;35761;48.826;9.238;2024-02-21T03:53:42;11.23;;;4.13;;
49860;SDS011;35761;48.826;9.238;2024-02-21T03:56:08;12.35;;;3.92;;
49860;SDS011;35761;48.826;9.238;2024-02-21T03:58:33;19.83;;;4.00;;
49860;SDS011;35761;48.826;9.238;2024-02-21T04:01:02;12.63;;;3.85;;
49860;SDS011;35761;48.826;9.238;2024-02-21T04:03:28;10.80;;;4.13;;
49860;SDS011;35761;48.826;9.238;2024-02-21T04:05:54;14.77;;;3.25;;
49860;SDS011;35761;48.826;9.238;2024-02-21T04:08:20;12.13;;;4.13;;
49860;SDS011;35761;48.826;9.238;2024-02-21T04:10:45;17.95;;;4.95;;
49860;SDS011;35761;48.826;9.238;2024-02-21T04:13:11;17.63;;;4.38;;
49860;SDS011;35761;48.826;9.238;2024-02-21T04:15:37;14.02;;;4.10;;
49860;SDS011;35761;48.826;9.238;2024-02-21T04:18:03;15.48;;;3.85;;
49860;SDS011;35761;48.826;9.238;2024-02-21T04:20:28;11.38;;;3.50;;
49860;SDS011;35761;48.826;9.238;2024-02-21T04:22:54;15.90;;;4.00;;
49860;SDS011;35761;48.826;9.238;2024-02-21T04:25:20;11.13;;;3.30;;
49860;SDS011;35761;48.826;9.238;2024-02-21T04:27:46;13.90;;;3.50;;
49860;SDS011;35761;48.826;9.238;2024-02-21T04:30:11;9.07;;;3.20;;
49860;SDS011;35761;48.826;9.238;2024-02-21T04:32:37;12.38;;;3.13;;
49860;SDS011;35761;48.826;9.238;2024-02-21T04:35:03;15.07;;;3.92;;
49860;SDS011;35761;48.826;9.238;2024-02-21T04:37:28;16.08;;;3.90;;
49860;SDS011;35761;48.826;9.238;2024-02-21T04:39:54;7.82;;;2.95;;
49860;SDS011;35761;48.826;9.238;2024-02-21T04:42:19;13.18;;;3.58;;
49860;SDS011;35761;48.826;9.238;2024-02-21T04:44:45;12.43;;;3.13;;
49860;SDS011;35761;48.826;9.238;2024-02-21T04:47:10;17.48;;;3.88;;
49860;SDS011;35761;48.826;9.238;2024-02-21T04:49:36;10.85;;;3.10;;
49860;SDS011;35761;48.826;9.238;2024-02-21T04:52:01;15.40;;;3.90;;
49860;SDS011;35761;48.826;9.238;2024-02-21T04:54:27;14.63;;;3.75;;
49860;SDS011;35761;48.826;9.238;2024-02-21T04:56:52;12.52;;;3.53;;
49860;SDS011;35761;48.826;9.238;2024-02-21T04:59:18;12.70;;;3.30;;
49860;SDS011;35761;48.826;9.238;2024-02-21T05:01:43;15.20;;;3.95;;
49860;SDS011;35761;48.826;9.238;2024-02-21T05:04:09;17.33;;;3.85;;
49860;SDS011;35761;48.826;9.238;2024-02-21T05:06:40;12.73;;;3.33;;
49860;SDS011;35761;48.826;9.238;2024-02-21T05:09:09;14.70;;;3.30;;
49860;SDS011;35761;48.826;9.238;2024-02-21T05:11:35;26.15;;;11.85;;
49860;SDS011;35761;48.826;9.238;2024-02-21T05:14:01;19.67;;;8.23;;
49860;SDS011;35761;48.826;9.238;2024-02-21T05:16:27;19.80;;;7.03;;
49860;SDS011;35761;48.826;9.238;2024-02-21T05:18:52;15.13;;;3.53;;
49860;SDS011;35761;48.826;9.238;2024-02-21T05:21:18;14.52;;;3.30;;
49860;SDS011;35761;48.826;9.238;2024-02-21T05:23:44;11.45;;;2.92;;
49860;SDS011;35761;48.826;9.238;2024-02-21T05:26:09;10.00;;;2.67;;
49860;SDS011;35761;48.826;9.238;2024-02-21T05:28:35;10.57;;;2.90;;
49860;SDS011;35761;48.826;9.238;2024-02-21T05:31:00;7.55;;;2.88;;
49860;SDS011;35761;48.826;9.238;2024-02-21T05:33:26;11.80;;;2.97;;
49860;SDS011;35761;48.826;9.238;2024-02-21T05:35:52;11.18;;;2.85;;
49860;SDS011;35761;48.826;9.238;2024-02-21T05:38:17;11.85;;;2.83;;
49860;SDS011;35761;48.826;9.238;2024-02-21T05:40:44;10.55;;;2.85;;
49860;SDS011;35761;48.826;9.238;2024-02-21T05:43:09;12.77;;;3.25;;
49860;SDS011;35761;48.826;9.238;2024-02-21T05:45:35;8.73;;;3.42;;
49860;SDS011;35761;48.826;9.238;2024-02-21T05:48:01;12.63;;;3.22;;
49860;SDS011;35761;48.826;9.238;2024-02-21T05:50:27;11.65;;;3.33;;
49860;SDS011;35761;48.826;9.238;2024-02-21T05:52:56;11.40;;;2.97;;
49860;SDS011;35761;48.826;9.238;2024-02-21T05:55:22;9.85;;;3.15;;
49860;SDS011;35761;48.826;9.238;2024-02-21T05:57:48;11.70;;;2.60;;
49860;SDS011;35761;48.826;9.238;2024-02-21T06:00:14;14.45;;;3.20;;
49860;SDS011;35761;48.826;9.238;2024-02-21T06:02:40;19.23;;;4.97;;
49860;SDS011;35761;48.826;9.238;2024-02-21T06:05:06;9.38;;;3.00;;
49860;SDS011;35761;48.826;9.238;2024-02-21T06:07:35;14.27;;;4.90;;
49860;SDS011;35761;48.826;9.238;2024-02-21T06:10:04;9.75;;;2.97;;
49860;SDS011;35761;48.826;9.238;2024-02-21T06:12:32;14.73;;;3.17;;
49860;SDS011;35761;48.826;9.238;2024-02-21T06:14:57;14.27;;;3.22;;
49860;SDS011;35761;48.826;9.238;2024-02-21T06:17:23;11.93;;;3.78;;
49860;SDS011;35761;48.826;9.238;2024-02-21T06:19:48;15.13;;;3.80;;
49860;SDS011;35761;48.826;9.238;2024-02-21T06:22:13;13.15;;;4.38;;
49860;SDS011;35761;48.826;9.238;2024-02-21T06:24:39;9.40;;;3.42;;
49860;SDS011;35761;48.826;9.238;2024-02-21T06:27:05;10.57;;;3.58;;
49860;SDS011;35761;48.826;9.238;2024-02-21T06:29:33;8.00;;;2.83;;
49860;SDS011;35761;48.826;9.238;2024-02-21T06:31:59;13.27;;;3.85;;
49860;SDS011;35761;48.826;9.238;2024-02-21T06:34:25;14.25;;;3.65;;
49860;SDS011;35761;48.826;9.238;2024-02-21T06:36:50;13.13;;;3.72;;
49860;SDS011;35761;48.826;9.238;2024-02-21T06:39:16;15.32;;;3.40;;
49860;SDS011;35761;48.826;9.238;2024-02-21T06:41:42;11.45;;;3.08;;
49860;SDS011;35761;48.826;9.238;2024-02-21T06:44:08;18.17;;;3.47;;
49860;SDS011;35761;48.826;9.238;2024-02-21T06:46:34;15.27;;;3.65;;
49860;SDS011;35761;48.826;9.238;2024-02-21T06:49:00;9.73;;;3.08;;
49860;SDS011;35761;48.826;9.238;2024-02-21T06:51:26;12.35;;;3.17;;
49860;SDS011;35761;48.826;9.238;2024-02-21T06:53:52;17.25;;;3.78;;
49860;SDS011;35761;48.826;9.238;2024-02-21T06:56:18;14.43;;;3.13;;
49860;SDS011;35761;48.826;9.238;2024-02-21T06:58:47;17.58;;;3.70;;
49860;SDS011;35761;48.826;9.238;2024-02-21T07:01:30;14.35;;;3.15;;
49860;SDS011;35761;48.826;9.238;2024-02-21T07:03:56;10.07;;;2.80;;
49860;SDS011;35761;48.826;9.238;2024-02-21T07:06:22;12.57;;;3.08;;
49860;SDS011;35761;48.826;9.238;2024-02-21T07:08:47;16.50;;;3.10;;
49860;SDS011;35761;48.826;9.238;2024-02-21T07:11:13;13.45;;;3.22;;
49860;SDS011;35761;48.826;9.238;2024-02-21T07:13:39;11.02;;;2.80;;
49860;SDS011;35761;48.826;9.238;2024-02-21T07:16:04;12.32;;;3.58;;
49860;SDS011;35761;48.826;9.238;2024-02-21T07:18:30;7.45;;;3.22;;
49860;SDS011;35761;48.826;9.238;2024-02-21T07:20:56;9.98;;;2.90;;
49860;SDS011;35761;48.826;9.238;2024-02-21T07:23:22;13.07;;;3.80;;
49860;SDS011;35761;48.826;9.238;2024-02-21T07:25:48;15.57;;;3.20;;
49860;SDS011;35761;48.826;9.238;2024-02-21T07:28:13;12.45;;;3.22;;
49860;SDS011;35761;48.826;9.238;2024-02-21T07:30:40;13.05;;;3.45;;
49860;SDS011;35761;48.826;9.238;2024-02-21T07:33:06;8.35;;;2.72;;
49860;SDS011;35761;48.826;9.238;2024-02-21T07:35:32;19.23;;;3.67;;
49860;SDS011;35761;48.826;9.238;2024-02-21T07:37:58;15.90;;;3.90;;
49860;SDS011;35761;48.826;9.238;2024-02-21T07:40:23;21.70;;;3.50;;
49860;SDS011;35761;48.826;9.238;2024-02-21T07:42:49;10.30;;;3.22;;
49860;SDS011;35761;48.826;9.238;2024-02-21T07:45:14;18.73;;;5.32;;
49860;SDS011;35761;48.826;9.238;2024-02-21T07:47:40;21.13;;;6.65;;
49860;SDS011;35761;48.826;9.238;2024-02-21T07:50:05;16.90;;;5.32;;
49860;SDS011;35761;48.826;9.238;2024-02-21T07:52:32;13.50;;;4.10;;
49860;SDS011;35761;48.826;9.238;2024-02-21T07:54:57;15.25;;;3.38;;
49860;SDS011;35761;48.826;9.238;2024-02-21T07:57:23;11.07;;;3.15;;
49860;SDS011;35761;48.826;9.238;2024-02-21T07:59:48;12.70;;;3.50;;
49860;SDS011;35761;48.826;9.238;2024-02-21T08:02:14;9.98;;;2.80;;
49860;SDS011;35761;48.826;9.238;2024-02-21T08:04:40;16.80;;;3.15;;
49860;SDS011;35761;48.826;9.238;2024-02-21T08:07:06;14.80;;;3.38;;
49860;SDS011;35761;48.826;9.238;2024-02-21T08:09:32;14.13;;;3.85;;
49860;SDS011;35761;48.826;9.238;2024-02-21T08:11:58;14.80;;;3.40;;
49860;SDS011;35761;48.826;9.238;2024-02-21T08:14:23;6.90;;;2.97;;
49860;SDS011;35761;48.826;9.238;2024-02-21T08:16:50;9.57;;;3.42;;
49860;SDS011;35761;48.826;9.238;2024-02-21T08:19:18;13.38;;;2.90;;
49860;SDS011;35761;48.826;9.238;2024-02-21T08:21:44;12.18;;;3.28;;
49860;SDS011;35761;48.826;9.238;2024-02-21T08:24:13;10.85;;;3.10;;
49860;SDS011;35761;48.826;9.238;2024-02-21T08:26:43;13.75;;;3.03;;
49860;SDS011;35761;48.826;9.238;2024-02-21T08:29:10;8.10;;;2.97;;
49860;SDS011;35761;48.826;9.238;2024-02-21T08:31:35;14.15;;;2.72;;
49860;SDS011;35761;48.826;9.238;2024-02-21T08:34:01;13.60;;;2.88;;
49860;SDS011;35761;48.826;9.238;2024-02-21T08:36:30;9.77;;;2.70;;
49860;SDS011;35761;48.826;9.238;2024-02-21T08:38:56;11.63;;;2.90;;
49860;SDS011;35761;48.826;9.238;2024-02-21T08:41:23;9.82;;;2.55;;
49860;SDS011;35761;48.826;9.238;2024-02-21T08:43:52;6.70;;;2.33;;
49860;SDS011;35761;48.826;9.238;2024-02-21T08:46:22;11.13;;;2.45;;
49860;SDS011;35761;48.826;9.238;2024-02-21T08:48:52;7.20;;;2.38;;
49860;SDS011;35761;48.826;9.238;2024-02-21T08:51:19;17.52;;;2.40;;
49860;SDS011;35761;48.826;9.238;2024-02-21T08:53:45;11.82;;;2.63;;
49860;SDS011;35761;48.826;9.238;2024-02-21T08:56:11;8.32;;;2.45;;
49860;SDS011;35761;48.826;9.238;2024-02-21T08:58:37;8.35;;;2.40;;
49860;SDS011;35761;48.826;9.238;2024-02-21T09:01:03;10.40;;;2.53;;
49860;SDS011;35761;48.826;9.238;2024-02-21T09:03:31;9.43;;;2.72;;
49860;SDS011;35761;48.826;9.238;2024-02-21T09:05:57;11.13;;;2.88;;
49860;SDS011;35761;48.826;9.238;2024-02-21T09:08:23;12.35;;;3.50;;
49860;SDS011;35761;48.826;9.238;2024-02-21T09:10:49;21.17;;;3.33;;
49860;SDS011;35761;48.826;9.238;2024-02-21T09:13:15;15.80;;;2.85;;
49860;SDS011;35761;48.826;9.238;2024-02-21T09:15:40;9.95;;;2.22;;
49860;SDS011;35761;48.826;9.238;2024-02-21T09:18:06;11.15;;;3.05;;
49860;SDS011;35761;48.826;9.238;2024-02-21T09:20:31;12.27;;;2.78;;
49860;SDS011;35761;48.826;9.238;2024-02-21T09:22:57;20.08;;;3.08;;
49860;SDS011;35761;48.826;9.238;2024-02-21T09:25:22;13.80;;;3.47;;
49860;SDS011;35761;48.826;9.238;2024-02-21T09:27:48;11.10;;;2.38;;
49860;SDS011;35761;48.826;9.238;2024-02-21T09:30:13;13.07;;;2.97;;
49860;SDS011;35761;48.826;9.238;2024-02-21T09:32:39;10.30;;;2.47;;
49860;SDS011;35761;48.826;9.238;2024-02-21T09:35:05;14.25;;;2.50;;
49860;SDS011;35761;48.826;9.238;2024-02-21T09:37:31;7.25;;;1.92;;
49860;SDS011;35761;48.826;9.238;2024-02-21T09:39:56;11.07;;;2.42;;
49860;SDS011;35761;48.826;9.238;2024-02-21T09:42:22;12.48;;;2.65;;
49860;SDS011;35761;48.826;9.238;2024-02-21T09:44:52;8.38;;;2.47;;
49860;SDS011;35761;48.826;9.238;2024-02-21T09:47:28;9.88;;;2.47;;
49860;SDS011;35761;48.826;9.238;2024-02-21T09:50:00;12.02;;;2.78;;
49860;SDS011;35761;48.826;9.238;2024-02-21T09:52:26;10.48;;;2.53;;
49860;SDS011;35761;48.826;9.238;2024-02-21T09:54:53;10.05;;;2.53;;
49860;SDS011;35761;48.826;9.238;2024-02-21T09:57:18;5.80;;;1.80;;
49860;SDS011;35761;48.826;9.238;2024-02-21T09:59:45;11.10;;;2.88;;
49860;SDS011;35761;48.826;9.238;2024-02-21T10:02:11;10.10;;;2.50;;
49860;SDS011;35761;48.826;9.238;2024-02-21T10:04:39;9.32;;;2.30;;
49860;SDS011;35761;48.826;9.238;2024-02-21T10:07:05;10.02;;;2.40;;
49860;SDS011;35761;48.826;9.238;2024-02-21T10:09:30;10.07;;;2.15;;
49860;SDS011;35761;48.826;9.238;2024-02-21T10:12:06;9.25;;;2.30;;
49860;SDS011;35761;48.826;9.238;2024-02-21T10:14:35;7.78;;;2.60;;
49860;SDS011;35761;48.826;9.238;2024-02-21T10:17:01;11.65;;;2.67;;
49860;SDS011;35761;48.826;9.238;2024-02-21T10:19:28;7.78;;;2.40;;
49860;SDS011;35761;48.826;9.238;2024-02-21T10:24:27;10.27;;;2.67;;
49860;SDS011;35761;48.826;9.238;2024-02-21T10:27:00;7.90;;;2.08;;
49860;SDS011;35761;48.826;9.238;2024-02-21T10:29:27;7.85;;;2.58;;
49860;SDS011;35761;48.826;9.238;2024-02-21T10:31:52;10.75;;;2.10;;
49860;SDS011;35761;48.826;9.238;2024-02-21T10:37:04;9.65;;;2.55;;
49860;SDS011;35761;48.826;9.238;2024-02-21T10:39:34;9.52;;;2.28;;
49860;SDS011;35761;48.826;9.238;2024-02-21T10:42:04;6.78;;;1.92;;
49860;SDS011;35761;48.826;9.238;2024-02-21T10:44:30;10.65;;;2.25;;
49860;SDS011;35761;48.826;9.238;2024-02-21T10:46:57;6.13;;;2.20;;
49860;SDS011;35761;48.826;9.238;2024-02-21T10:49:24;10.10;;;2.10;;
49860;SDS011;35761;48.826;9.238;2024-02-21T10:51:54;10.90;;;2.25;;
49860;SDS011;35761;48.826;9.238;2024-02-21T10:57:12;6.53;;;1.63;;
49860;SDS011;35761;48.826;9.238;2024-02-21T10:59:38;6.07;;;2.00;;
49860;SDS011;35761;48.826;9.238;2024-02-21T11:02:05;6.80;;;2.08;;
49860;SDS011;35761;48.826;9.238;2024-02-21T11:04:31;12.30;;;1.95;;
49860;SDS011;35761;48.826;9.238;2024-02-21T11:06:57;7.63;;;1.67;;
49860;SDS011;35761;48.826;9.238;2024-02-21T11:09:29;4.90;;;1.90;;
49860;SDS011;35761;48.826;9.238;2024-02-21T11:11:55;12.48;;;2.78;;
49860;SDS011;35761;48.826;9.238;2024-02-21T11:14:21;8.90;;;2.10;;
49860;SDS011;35761;48.826;9.238;2024-02-21T11:16:46;9.57;;;2.08;;
49860;SDS011;35761;48.826;9.238;2024-02-21T11:19:25;6.65;;;2.00;;
49860;SDS011;35761;48.826;9.238;2024-02-21T11:21:51;5.78;;;1.77;;
49860;SDS011;35761;48.826;9.238;2024-02-21T11:24:33;9.07;;;2.10;;
49860;SDS011;35761;48.826;9.238;2024-02-21T11:29:46;13.98;;;3.22;;
49860;SDS011;35761;48.826;9.238;2024-02-21T11:32:14;10.02;;;2.15;;
49860;SDS011;35761;48.826;9.238;2024-02-21T11:34:40;10.40;;;2.17;;
49860;SDS011;35761;48.826;9.238;2024-02-21T11:37:15;6.50;;;2.03;;
49860;SDS011;35761;48.826;9.238;2024-02-21T11:39:43;6.85;;;1.90;;
49860;SDS011;35761;48.826;9.238;2024-02-21T11:42:09;9.02;;;1.98;;
49860;SDS011;35761;48.826;9.238;2024-02-21T11:44:35;8.43;;;1.80;;
49860;SDS011;35761;48.826;9.238;2024-02-21T11:47:05;6.53;;;1.95;;
49860;SDS011;35761;48.826;9.238;2024-02-21T11:49:36;4.18;;;1.73;;
49860;SDS011;35761;48.826;9.238;2024-02-21T11:52:05;9.65;;;2.05;;
49860;SDS011;35761;48.826;9.238;2024-02-21T11:54:32;9.80;;;2.42;;
49860;SDS011;35761;48.826;9.238;2024-02-21T11:56:58;6.80;;;2.30;;
49860;SDS011;35761;48.826;9.238;2024-02-21T11:59:23;5.65;;;1.98;;
49860;SDS011;35761;48.826;9.238;2024-02-21T12:01:49;7.57;;;1.98;;
49860;SDS011;35761;48.826;9.238;2024-02-21T12:04:17;10.23;;;2.30;;
49860;SDS011;35761;48.826;9.238;2024-02-21T12:06:45;6.18;;;2.15;;
49860;SDS011;35761;48.826;9.238;2024-02-21T12:09:14;7.13;;;2.15;;
49860;SDS011;35761;48.826;9.238;2024-02-21T12:11:41;5.20;;;2.03;;
49860;SDS011;35761;48.826;9.238;2024-02-21T12:14:06;6.35;;;2.13;;
49860;SDS011;35761;48.826;9.238;2024-02-21T12:16:32;5.00;;;1.73;;
49860;SDS011;35761;48.826;9.238;2024-02-21T12:19:01;10.13;;;2.15;;
49860;SDS011;35761;48.826;9.238;2024-02-21T12:21:31;9.85;;;1.92;;
49860;SDS011;35761;48.826;9.238;2024-02-21T12:26:48;5.97;;;1.55;;
49860;SDS011;35761;48.826;9.238;2024-02-21T12:29:14;6.72;;;1.98;;
49860;SDS011;35761;48.826;9.238;2024-02-21T12:31:40;13.50;;;2.13;;
49860;SDS011;35761;48.826;9.238;2024-02-21T12:34:06;7.25;;;1.83;;
49860;SDS011;35761;48.826;9.238;2024-02-21T12:36:32;8.15;;;2.25;;
49860;SDS011;35761;48.826;9.238;2024-02-21T12:38:58;6.30;;;1.83;;
49860;SDS011;35761;48.826;9.238;2024-02-21T12:41:24;8.48;;;2.08;;
49860;SDS011;35761;48.826;9.238;2024-02-21T12:43:52;9.23;;;1.77;;
49860;SDS011;35761;48.826;9.238;2024-02-21T12:46:17;8.85;;;2.00;;
49860;SDS011;35761;48.826;9.238;2024-02-21T12:48:45;7.20;;;2.20;;
49860;SDS011;35761;48.826;9.238;2024-02-21T12:51:10;6.43;;;1.65;;
49860;SDS011;35761;48.826;9.238;2024-02-21T12:53:36;26.45;;;15.27;;
49860;SDS011;35761;48.826;9.238;2024-02-21T12:56:01;15.65;;;6.53;;
49860;SDS011;35761;48.826;9.238;2024-02-21T12:58:27;19.83;;;9.32;;
49860;SDS011;35761;48.826;9.238;2024-02-21T13:00:56;4.85;;;1.58;;
49860;SDS011;35761;48.826;9.238;2024-02-21T13:03:22;5.47;;;1.77;;
49860;SDS011;35761;48.826;9.238;2024-02-21T13:05:47;5.68;;;1.60;;
49860;SDS011;35761;48.826;9.238;2024-02-21T13:08:13;4.97;;;1.48;;
49860;SDS011;35761;48.826;9.238;2024-02-21T13:10:39;4.57;;;1.50;;
49860;SDS011;35761;48.826;9.238;2024-02-21T13:13:04;8.45;;;1.65;;
49860;SDS011;35761;48.826;9.238;2024-02-21T13:15:30;6.35;;;2.00;;
49860;SDS011;35761;48.826;9.238;2024-02-21T13:17:56;3.60;;;1.70;;
49860;SDS011;35761;48.826;9.238;2024-02-21T13:20:22;5.65;;;1.52;;
49860;SDS011;35761;48.826;9.238;2024-02-21T13:22:47;14.90;;;1.90;;
49860;SDS011;35761;48.826;9.238;2024-02-21T13:25:13;5.20;;;1.55;;
49860;SDS011;35761;48.826;9.238;2024-02-21T13:27:44;2.95;;;1.35;;
49860;SDS011;35761;48.826;9.238;2024-02-21T13:30:10;4.28;;;1.50;;
49860;SDS011;35761;48.826;9.238;2024-02-21T13:32:36;6.35;;;1.60;;
49860;SDS011;35761;48.826;9.238;2024-02-21T13:35:02;3.67;;;1.40;;
49860;SDS011;35761;48.826;9.238;2024-02-21T13:37:28;5.75;;;1.90;;
49860;SDS011;35761;48.826;9.238;2024-02-21T13:39:54;7.00;;;1.52;;
49860;SDS011;35761;48.826;9.238;2024-02-21T13:42:20;3.85;;;1.30;;
49860;SDS011;35761;48.826;9.238;2024-02-21T13:44:45;2.88;;;1.17;;
49860;SDS011;35761;48.826;9.238;2024-02-21T13:47:13;4.10;;;1.25;;
49860;SDS011;35761;48.826;9.238;2024-02-21T13:49:39;4.43;;;1.48;;
49860;SDS011;35761;48.826;9.238;2024-02-21T13:52:04;4.25;;;1.40;;
49860;SDS011;35761;48.826;9.238;2024-02-21T13:54:30;5.13;;;1.30;;
49860;SDS011;35761;48.826;9.238;2024-02-21T13:56:56;8.10;;;1.52;;
49860;SDS011;35761;48.826;9.238;2024-02-21T13:59:21;3.85;;;1.20;;
49860;SDS011;35761;48.826;9.238;2024-02-21T14:01:46;9.02;;;2.10;;
49860;SDS011;35761;48.826;9.238;2024-02-21T14:04:12;7.50;;;2.45;;
49860;SDS011;35761;48.826;9.238;2024-02-21T14:06:37;2.33;;;1.15;;
49860;SDS011;35761;48.826;9.238;2024-02-21T14:09:08;3.30;;;1.30;;
49860;SDS011;35761;48.826;9.238;2024-02-21T14:11:34;8.15;;;1.48;;
49860;SDS011;35761;48.826;9.238;2024-02-21T14:14:00;4.28;;;1.42;;
49860;SDS011;35761;48.826;9.238;2024-02-21T14:16:26;2.35;;;1.50;;
49860;SDS011;35761;48.826;9.238;2024-02-21T14:18:52;3.45;;;1.45;;
49860;SDS011;35761;48.826;9.238;2024-02-21T14:21:19;5.70;;;1.23;;
49860;SDS011;35761;48.826;9.238;2024-02-21T14:23:44;6.22;;;1.58;;
49860;SDS011;35761;48.826;9.238;2024-02-21T14:26:10;6.10;;;1.10;;
49860;SDS011;35761;48.826;9.238;2024-02-21T14:28:35;6.65;;;1.48;;
49860;SDS011;35761;48.826;9.238;2024-02-21T14:31:01;3.85;;;1.20;;
49860;SDS011;35761;48.826;9.238;2024-02-21T14:33:28;2.30;;;1.23;;
49860;SDS011;35761;48.826;9.238;2024-02-21T14:35:55;5.43;;;1.65;;
49860;SDS011;35761;48.826;9.238;2024-02-21T14:38:20;5.05;;;1.27;;
49860;SDS011;35761;48.826;9.238;2024-02-21T14:40:46;5.20;;;1.48;;
49860;SDS011;35761;48.826;9.238;2024-02-21T14:43:11;4.28;;;1.50;;
49860;SDS011;35761;48.826;9.238;2024-02-21T14:45:37;2.95;;;1.20;;